AIRPORT_AIRPORT_METAR
METAR FOR LQTZ
ADDS - METARS form results

(1523 UTC 18 August 2019)
Data provider http://aviationweather.gov/metar/data/
 
METAR text: LQTZ 181500Z 15003KT 110V190 CAVOK 30/16 Q1016
Conditions at: LQTZ (TUZLA , CS) observed 1500 UTC 18 August 2019
Temperature: 30.0°C (86°F)
Dewpoint: 16.0°C (61°F) [RH = 43%]
Pressure (altimeter): 30.00 inches Hg (1016.0 mb)
Winds: from the SSE (150 degrees) at 3 MPH (3 knots; 1.5 m/s)
Visibility: 6 or more miles (10+ km)
Ceiling: ceiling and visibility are OK
Clouds: unknown
Weather: no significant weather observed at this time

METAR text: LQTZ 181430Z VRB03KT CAVOK 30/18 Q1016
Conditions at: LQTZ (TUZLA , CS) observed 1430 UTC 18 August 2019
Temperature: 30.0°C (86°F)
Dewpoint: 18.0°C (64°F) [RH = 49%]
Pressure (altimeter): 30.00 inches Hg (1016.0 mb)
Winds: variable direction winds at 3 MPH (3 knots; 1.5 m/s)
Visibility: 6 or more miles (10+ km)
Ceiling: ceiling and visibility are OK
Clouds: unknown
Weather: no significant weather observed at this time

Forecast for: LQTZ (TUZLA , CS)
Text: TAF LQTZ 181100Z 1812/1912 10004KT CAVOK TX31/1814Z TN11/1904Z
Forecast period: 1200 UTC 18 August 2019 to 1200 UTC 19 August 2019
Forecast type: FROM: standard forecast or significant change
Winds: from the E (100 degrees) at 5 MPH (4 knots; 2.1 m/s)
Visibility: 6 or more miles 10+ km)
Ceiling: unknown
Clouds: missing
Weather: no significant weather forecast for this period

 AIRPORT_AIRPORT_MAP

 AIRPORT_RUNWAY_INFO
AIRPORT_RUNWAY 09 AIRPORT_RUNWAY_LENGTH 8152 ft AIRPORT_RUNWAY_WIDTH 148 ft
AIRPORT_RUNWAY_ELEVATION 763 ft AIRPORT_RUNWAY_THRESHOLD 0 ft AIRPORT_RUNWAY_HEADING 96
AIRPORT_RUNWAY 27 AIRPORT_RUNWAY_LENGTH 8152 ft AIRPORT_RUNWAY_WIDTH 148 ft
AIRPORT_RUNWAY_ELEVATION 776 ft AIRPORT_RUNWAY_THRESHOLD 0 ft AIRPORT_RUNWAY_HEADING 276

 AIRPORT_AIRPORT_FREQUENCIES
AIRPORT_AIRPORT_NAVAIDS_TYPE APP AIRPORT_AIRPORT_NAVAIDS_NAME APP/DEP AIRPORT_AIRPORT_NAVAIDS_FREQ 125.8 MHZ
AIRPORT_AIRPORT_NAVAIDS_TYPE ATIS AIRPORT_AIRPORT_NAVAIDS_NAME ATIS AIRPORT_AIRPORT_NAVAIDS_FREQ 140.325 MHZ
AIRPORT_AIRPORT_NAVAIDS_TYPE GCCD AIRPORT_AIRPORT_NAVAIDS_NAME GND/CLNC D AIRPORT_AIRPORT_NAVAIDS_FREQ 143.425 MHZ
AIRPORT_AIRPORT_NAVAIDS_TYPE OPS AIRPORT_AIRPORT_NAVAIDS_NAME AFLD OPS AIRPORT_AIRPORT_NAVAIDS_FREQ 142.525 MHZ
AIRPORT_AIRPORT_NAVAIDS_TYPE PMSV AIRPORT_AIRPORT_NAVAIDS_NAME PMSV METRO AIRPORT_AIRPORT_NAVAIDS_FREQ 25.892 MHZ
AIRPORT_AIRPORT_NAVAIDS_TYPE TWR AIRPORT_AIRPORT_NAVAIDS_NAME TWR AIRPORT_AIRPORT_NAVAIDS_FREQ 130.85 MHZ

 AIRPORT_AIRPORT_NAVAIDS
AIRPORT_AIRPORT_NAVAIDS_TYPE NDB AIRPORT_AIRPORT_NAVAIDS_NAME Tuzla AIRPORT_AIRPORT_NAVAIDS_FREQ 445 KHZ
AIRPORT_AIRPORT_NAVAIDS_TYPE TACAN AIRPORT_AIRPORT_NAVAIDS_NAME Tuzla AIRPORT_AIRPORT_NAVAIDS_FREQ 109700 KHZ



Copyright © 2005-2019 - Virtuel Air Alsace - Tous droits réservés